createdAt,value
2023-05-12T00:00:41.803Z,99149.70
2023-05-12T00:02:46.495Z,99148.24
2023-05-12T00:04:51.288Z,99148.30
2023-05-12T00:06:56.003Z,99149.75
2023-05-12T00:09:00.704Z,99154.42
2023-05-12T00:11:08.373Z,99152.52
2023-05-12T00:13:13.166Z,99154.04
2023-05-12T00:15:18.047Z,99153.03
2023-05-12T00:17:22.830Z,99158.38
2023-05-12T00:19:27.481Z,99156.38
2023-05-12T00:21:32.249Z,99158.06
2023-05-12T00:23:36.981Z,99155.50
2023-05-12T00:25:41.744Z,99157.45
2023-05-12T00:27:46.413Z,99156.06
2023-05-12T00:29:51.077Z,99153.14
2023-05-12T00:31:56.964Z,99153.47
2023-05-12T00:34:01.830Z,99150.81
2023-05-12T00:36:07.967Z,99150.06
2023-05-12T00:38:12.686Z,99149.53
2023-05-12T00:40:17.683Z,99146.73
2023-05-12T00:42:22.597Z,99150.39
2023-05-12T00:44:27.334Z,99150.44
2023-05-12T00:46:32.128Z,99152.20
2023-05-12T00:48:37.589Z,99154.55
2023-05-12T00:50:42.630Z,99157.05
2023-05-12T00:52:48.302Z,99154.84
2023-05-12T00:54:53.078Z,99157.27
2023-05-12T00:56:58.921Z,99160.00
2023-05-12T00:59:04.189Z,99155.30
2023-05-12T01:01:09.058Z,99157.23
2023-05-12T01:03:13.872Z,99156.26
2023-05-12T01:05:19.444Z,99159.18
2023-05-12T01:07:25.245Z,99160.72
2023-05-12T01:09:30.414Z,99162.20
2023-05-12T01:11:35.634Z,99159.20
2023-05-12T01:13:41.860Z,99160.21
2023-05-12T01:15:48.273Z,99161.00
2023-05-12T01:17:57.391Z,99166.55
2023-05-12T01:20:06.238Z,99165.17
2023-05-12T01:22:11.459Z,99169.89
2023-05-12T01:24:19.756Z,99167.34
2023-05-12T01:26:24.990Z,99165.69
2023-05-12T01:28:29.927Z,99170.69
2023-05-12T01:30:36.186Z,99172.19
2023-05-12T01:32:42.065Z,99170.14
2023-05-12T01:34:47.023Z,99169.59
2023-05-12T01:36:52.394Z,99172.26
2023-05-12T01:38:57.350Z,99173.65
2023-05-12T01:41:02.116Z,99171.45
2023-05-12T01:43:06.803Z,99172.27
2023-05-12T01:45:14.677Z,99172.32
2023-05-12T01:47:19.600Z,99173.73
2023-05-12T01:49:30.647Z,99171.52
2023-05-12T01:51:35.768Z,99169.61
2023-05-12T01:53:40.567Z,99168.36
2023-05-12T01:55:45.383Z,99167.98
2023-05-12T01:57:50.393Z,99168.09
2023-05-12T01:59:55.202Z,99173.45
2023-05-12T02:02:00.092Z,99170.67
2023-05-12T02:04:07.913Z,99171.06
2023-05-12T02:06:13.443Z,99167.79
2023-05-12T02:08:18.131Z,99169.70
2023-05-12T02:10:22.944Z,99171.22
2023-05-12T02:12:27.674Z,99173.22
2023-05-12T02:14:32.372Z,99171.52
2023-05-12T02:16:37.202Z,99173.06
2023-05-12T02:18:42.221Z,99177.66
2023-05-12T02:20:47.135Z,99180.52
2023-05-12T02:22:51.854Z,99180.86
2023-05-12T02:24:56.883Z,99178.95
2023-05-12T02:27:01.736Z,99175.84
2023-05-12T02:29:07.518Z,99177.39
2023-05-12T02:31:12.310Z,99178.88
2023-05-12T02:33:18.848Z,99181.19
2023-05-12T02:35:23.694Z,99182.27
2023-05-12T02:37:28.396Z,99179.30
2023-05-12T02:39:33.055Z,99177.81
2023-05-12T02:41:37.792Z,99174.98
2023-05-12T02:43:42.757Z,99177.73
2023-05-12T02:45:47.407Z,99177.13
2023-05-12T02:47:52.051Z,99176.91
2023-05-12T02:49:56.929Z,99176.88
2023-05-12T02:52:01.742Z,99176.02
2023-05-12T02:54:06.978Z,99176.38
2023-05-12T02:56:11.815Z,99179.34
2023-05-12T02:58:16.572Z,99178.58
2023-05-12T03:00:21.542Z,99180.38
2023-05-12T03:02:26.570Z,99182.70
2023-05-12T03:04:31.324Z,99182.91
2023-05-12T03:06:35.997Z,99184.54
2023-05-12T03:08:43.676Z,99182.86
2023-05-12T03:10:48.511Z,99184.73
2023-05-12T03:12:53.230Z,99182.70
2023-05-12T03:14:58.677Z,99183.70
2023-05-12T03:17:03.967Z,99183.30
2023-05-12T03:19:08.856Z,99186.27
2023-05-12T03:21:13.570Z,99190.36
2023-05-12T03:23:18.438Z,99186.23
2023-05-12T03:25:23.232Z,99186.48
2023-05-12T03:27:28.023Z,99180.39
2023-05-12T03:29:32.745Z,99180.72
2023-05-12T03:31:37.640Z,99177.45
2023-05-12T03:33:42.715Z,99178.38
2023-05-12T03:35:47.640Z,99175.59
2023-05-12T03:37:52.506Z,99182.13
2023-05-12T03:39:57.388Z,99183.66
2023-05-12T03:42:02.065Z,99182.60
2023-05-12T03:44:07.792Z,99179.34
2023-05-12T03:46:12.528Z,99182.02
2023-05-12T03:48:17.338Z,99182.30
2023-05-12T03:50:22.380Z,99184.44
2023-05-12T03:52:27.246Z,99185.80
2023-05-12T03:54:31.953Z,99183.21
2023-05-12T03:56:36.510Z,99186.34
2023-05-12T03:58:41.243Z,99184.31
2023-05-12T04:00:46.114Z,99184.81
2023-05-12T04:02:50.828Z,99184.07
2023-05-12T04:04:55.462Z,99187.41
2023-05-12T04:07:01.060Z,99186.38
2023-05-12T04:09:05.920Z,99192.08
2023-05-12T04:11:10.690Z,99190.25
2023-05-12T04:13:15.362Z,99191.13
2023-05-12T04:15:20.170Z,99194.74
2023-05-12T04:17:24.895Z,99197.79
2023-05-12T04:19:30.348Z,99197.34
2023-05-12T04:21:35.046Z,99199.80
2023-05-12T04:23:39.803Z,99204.27
2023-05-12T04:25:44.702Z,99204.27
2023-05-12T04:27:49.433Z,99207.63
2023-05-12T04:29:54.504Z,99213.88
2023-05-12T04:31:59.545Z,99212.08
2023-05-12T04:34:04.353Z,99217.36
2023-05-12T04:36:10.578Z,99213.92
2023-05-12T04:38:18.158Z,99215.07
2023-05-12T04:40:23.088Z,99218.48
2023-05-12T04:42:28.322Z,99221.16
2023-05-12T04:44:33.860Z,99226.25
2023-05-12T04:46:38.590Z,99226.37
2023-05-12T04:48:43.532Z,99223.58
2023-05-12T04:50:48.383Z,99223.91
2023-05-12T04:52:54.338Z,99225.19
2023-05-12T04:54:59.747Z,99221.91
2023-05-12T04:57:04.508Z,99223.21
2023-05-12T04:59:09.497Z,99224.48
2023-05-12T05:01:14.273Z,99228.85
2023-05-12T05:03:19.057Z,99226.21
2023-05-12T05:05:23.842Z,99225.48
2023-05-12T05:07:28.997Z,99226.74
2023-05-12T05:09:36.084Z,99224.61
2023-05-12T05:11:41.350Z,99224.20
2023-05-12T05:13:46.062Z,99223.42
2023-05-12T05:15:54.221Z,99225.31
2023-05-12T05:18:01.907Z,99224.34
2023-05-12T05:20:11.805Z,99223.19
2023-05-12T05:22:18.199Z,99225.27
2023-05-12T05:24:22.825Z,99231.56
2023-05-12T05:26:27.536Z,99227.37
2023-05-12T05:28:32.342Z,99227.73
2023-05-12T05:30:38.329Z,99223.18
2023-05-12T05:32:43.801Z,99225.15
2023-05-12T05:34:48.580Z,99224.61
2023-05-12T05:36:54.307Z,99227.25
2023-05-12T05:38:58.998Z,99224.75
2023-05-12T05:41:03.971Z,99228.89
2023-05-12T05:43:08.687Z,99231.79
2023-05-12T05:45:13.778Z,99234.42
2023-05-12T05:47:20.557Z,99231.01
2023-05-12T05:49:25.317Z,99233.75
2023-05-12T05:51:31.411Z,99229.98
2023-05-12T05:53:37.147Z,99228.17
2023-05-12T05:55:41.935Z,99230.55
2023-05-12T05:57:46.603Z,99228.20
2023-05-12T05:59:51.605Z,99228.42
2023-05-12T06:01:56.516Z,99229.36
2023-05-12T06:04:01.413Z,99230.31
2023-05-12T06:06:06.652Z,99235.08
2023-05-12T06:08:11.565Z,99238.36
2023-05-12T06:10:19.677Z,99236.97
2023-05-12T06:12:24.652Z,99244.60
2023-05-12T06:14:29.309Z,99247.19
2023-05-12T06:16:34.193Z,99254.36
2023-05-12T06:18:39.280Z,99254.90
2023-05-12T06:20:44.096Z,99255.52
2023-05-12T06:22:49.036Z,99258.89
2023-05-12T06:24:54.561Z,99258.06
2023-05-12T06:26:59.358Z,99257.40
2023-05-12T06:29:05.915Z,99259.01
2023-05-12T06:31:11.361Z,99256.66
2023-05-12T06:33:16.094Z,99259.16
2023-05-12T06:35:22.545Z,99259.87
2023-05-12T06:37:27.456Z,99262.64
2023-05-12T06:39:32.231Z,99264.07
2023-05-12T06:41:36.943Z,99261.07
2023-05-12T06:43:42.416Z,99263.13
2023-05-12T06:45:47.201Z,99261.63
2023-05-12T06:47:52.158Z,99262.97
2023-05-12T06:49:56.973Z,99259.86
2023-05-12T06:52:01.712Z,99262.27
2023-05-12T06:54:06.886Z,99264.61
2023-05-12T06:56:11.511Z,99262.63
2023-05-12T06:58:16.372Z,99264.04
2023-05-12T07:00:22.232Z,99260.05
2023-05-12T07:02:26.975Z,99266.86
2023-05-12T07:04:31.782Z,99266.36
2023-05-12T07:06:39.418Z,99266.29
2023-05-12T07:08:44.180Z,99262.79
2023-05-12T07:10:49.117Z,99273.59
2023-05-12T07:12:53.851Z,99273.91
2023-05-12T07:14:58.783Z,99271.58
2023-05-12T07:17:03.773Z,99268.27
2023-05-12T07:19:08.561Z,99266.70
2023-05-12T07:21:13.892Z,99260.13
2023-05-12T07:23:18.668Z,99260.07
2023-05-12T07:25:23.805Z,99258.23
2023-05-12T07:27:28.623Z,99258.27
2023-05-12T07:29:33.363Z,99259.27
2023-05-12T07:31:38.163Z,99262.73
2023-05-12T07:33:43.042Z,99265.19
2023-05-12T07:35:48.800Z,99265.11
2023-05-12T07:37:53.639Z,99268.36
2023-05-12T07:39:58.410Z,99270.29
2023-05-12T07:42:03.186Z,99266.79
2023-05-12T07:44:08.098Z,99265.47
2023-05-12T07:46:13.128Z,99269.45
2023-05-12T07:48:17.811Z,99272.08
2023-05-12T07:50:22.649Z,99273.05
2023-05-12T07:52:27.364Z,99277.63
2023-05-12T07:54:32.184Z,99277.27
2023-05-12T07:56:36.811Z,99282.35
2023-05-12T07:58:41.459Z,99276.41
2023-05-12T08:00:46.170Z,99285.59
2023-05-12T08:02:51.071Z,99288.91
2023-05-12T08:04:55.969Z,99289.06
2023-05-12T08:07:00.756Z,99293.11
2023-05-12T08:09:05.833Z,99291.70
2023-05-12T08:11:13.644Z,99294.13
2023-05-12T08:13:18.532Z,99291.58
2023-05-12T08:15:23.445Z,99298.06
2023-05-12T08:17:29.425Z,99299.79
2023-05-12T08:19:34.398Z,99299.58
2023-05-12T08:21:39.354Z,99299.52
2023-05-12T08:23:44.167Z,99299.52
2023-05-12T08:25:48.995Z,99299.67
2023-05-12T08:27:54.022Z,99300.91
2023-05-12T08:29:58.852Z,99299.45
2023-05-12T08:32:04.550Z,99299.52
2023-05-12T08:34:11.134Z,99296.55
2023-05-12T08:36:16.122Z,99297.98
2023-05-12T08:38:21.169Z,99298.59
2023-05-12T08:40:27.366Z,99299.11
2023-05-12T08:42:41.511Z,99301.73
2023-05-12T08:44:46.515Z,99295.90
2023-05-12T08:46:52.656Z,99300.33
2023-05-12T08:48:59.575Z,99299.92
2023-05-12T08:51:06.156Z,99303.81
2023-05-12T08:53:13.660Z,99300.70
2023-05-12T08:55:20.431Z,99297.63
2023-05-12T08:57:28.120Z,99301.21
2023-05-12T08:59:34.337Z,99301.84
2023-05-12T09:01:39.650Z,99307.80
2023-05-12T09:03:44.649Z,99313.02
2023-05-12T09:05:50.141Z,99313.98
2023-05-12T09:07:55.877Z,99316.29
2023-05-12T09:10:05.042Z,99319.64
2023-05-12T09:12:16.881Z,99326.42
2023-05-12T09:14:25.195Z,99327.84
2023-05-12T09:16:35.928Z,99329.80
2023-05-12T09:18:50.735Z,99334.45
2023-05-12T09:20:56.002Z,99332.71
2023-05-12T09:23:11.106Z,99334.84
2023-05-12T09:25:20.745Z,99336.19
2023-05-12T09:27:29.532Z,99336.54
2023-05-12T09:29:45.133Z,99336.53
2023-05-12T09:31:54.428Z,99338.92
2023-05-12T09:33:59.809Z,99334.64
2023-05-12T09:36:05.037Z,99335.07
2023-05-12T09:38:11.512Z,99335.99
2023-05-12T09:40:17.525Z,99337.51
2023-05-12T09:42:24.273Z,99337.23
2023-05-12T09:44:30.039Z,99339.95
2023-05-12T09:46:35.300Z,99341.85
2023-05-12T09:48:40.246Z,99341.23
2023-05-12T09:50:49.881Z,99337.61
2023-05-12T09:52:54.924Z,99340.20
2023-05-12T09:55:06.338Z,99341.90
2023-05-12T09:57:15.660Z,99343.23
2023-05-12T09:59:22.431Z,99342.37
2023-05-12T10:01:28.380Z,99344.63
2023-05-12T10:03:36.251Z,99341.41
2023-05-12T10:05:48.807Z,99344.09
2023-05-12T10:07:57.653Z,99342.67
2023-05-12T10:10:08.641Z,99346.70
2023-05-12T10:12:14.386Z,99345.47
2023-05-12T10:14:19.290Z,99346.09
2023-05-12T10:16:24.442Z,99344.91
2023-05-12T10:18:29.454Z,99342.52
2023-05-12T10:20:35.170Z,99348.42
2023-05-12T10:22:42.158Z,99346.37
2023-05-12T10:24:48.905Z,99346.58
2023-05-12T10:26:54.858Z,99345.26
2023-05-12T10:29:00.287Z,99346.32
2023-05-12T10:31:10.276Z,99343.66
2023-05-12T10:33:15.169Z,99345.20
2023-05-12T10:35:20.131Z,99344.77
2023-05-12T10:37:25.250Z,99347.54
2023-05-12T10:39:33.797Z,99350.02
2023-05-12T10:41:38.786Z,99352.72
2023-05-12T10:43:44.996Z,99348.98
2023-05-12T10:46:08.229Z,99351.84
2023-05-12T10:48:17.062Z,99357.20
2023-05-12T10:50:29.524Z,99354.72
2023-05-12T10:52:34.336Z,99361.56
2023-05-12T10:54:42.077Z,99356.11
2023-05-12T10:56:47.911Z,99360.73
2023-05-12T10:59:16.502Z,99361.91
2023-05-12T11:01:26.443Z,99360.89
2023-05-12T11:03:33.357Z,99358.67
2023-05-12T11:05:40.321Z,99362.75
2023-05-12T11:07:50.116Z,99358.52
2023-05-12T11:09:59.564Z,99361.36
2023-05-12T11:12:08.863Z,99360.65
2023-05-12T11:14:14.220Z,99359.09
2023-05-12T11:16:20.566Z,99360.07
2023-05-12T11:18:25.951Z,99357.80
2023-05-12T11:20:31.345Z,99361.10
2023-05-12T11:22:36.465Z,99362.44
2023-05-12T11:24:42.417Z,99363.33
2023-05-12T11:26:47.618Z,99366.00
2023-05-12T11:28:52.601Z,99369.23
2023-05-12T11:30:57.278Z,99369.42
2023-05-12T11:33:06.143Z,99371.60
2023-05-12T11:35:17.274Z,99372.42
2023-05-12T11:37:22.105Z,99377.67
2023-05-12T11:39:28.729Z,99374.23
2023-05-12T11:41:33.760Z,99372.25
2023-05-12T11:43:38.562Z,99378.61
2023-05-12T11:45:45.315Z,99378.52
2023-05-12T11:47:50.549Z,99382.48
2023-05-12T11:49:56.070Z,99382.41
2023-05-12T11:52:02.175Z,99383.30
2023-05-12T11:54:08.754Z,99387.60
2023-05-12T11:56:19.899Z,99386.16
2023-05-12T11:58:26.890Z,99388.14
2023-05-12T12:00:33.984Z,99390.45
2023-05-12T12:02:38.905Z,99392.11
2023-05-12T12:04:43.852Z,99393.02
2023-05-12T12:06:49.099Z,99393.77
2023-05-12T12:08:55.319Z,99400.09
2023-05-12T12:11:02.748Z,99401.14
2023-05-12T12:13:08.533Z,99403.80
2023-05-12T12:15:13.855Z,99400.25
2023-05-12T12:17:18.616Z,99404.20
2023-05-12T12:19:23.395Z,99401.08
2023-05-12T12:21:28.560Z,99402.88
2023-05-12T12:23:43.832Z,99404.61
2023-05-12T12:25:52.308Z,99403.48
2023-05-12T12:27:57.079Z,99404.40
2023-05-12T12:30:01.888Z,99407.64
2023-05-12T12:32:07.482Z,99406.81
2023-05-12T12:34:12.301Z,99413.46
2023-05-12T12:36:17.058Z,99410.83
2023-05-12T12:38:21.869Z,99409.19
2023-05-12T12:40:26.597Z,99411.70
2023-05-12T12:42:31.220Z,99413.09
2023-05-12T12:44:38.888Z,99410.88
2023-05-12T12:46:43.614Z,99413.42
2023-05-12T12:48:48.417Z,99414.16
2023-05-12T12:50:53.140Z,99411.26
2023-05-12T12:52:57.817Z,99415.48
2023-05-12T12:55:02.663Z,99412.60
2023-05-12T12:57:07.538Z,99412.52
2023-05-12T12:59:12.254Z,99412.68
2023-05-12T13:01:16.985Z,99416.10
2023-05-12T13:03:21.830Z,99414.01
2023-05-12T13:05:26.479Z,99413.03
2023-05-12T13:07:31.444Z,99412.08
2023-05-12T13:09:36.212Z,99419.45
2023-05-12T13:11:40.994Z,99417.01
2023-05-12T13:13:45.657Z,99415.19
2023-05-12T13:15:50.496Z,99417.86
2023-05-12T13:17:55.267Z,99416.34
2023-05-12T13:20:00.034Z,99412.95
2023-05-12T13:22:05.031Z,99413.77
2023-05-12T13:24:09.975Z,99414.14
2023-05-12T13:26:14.657Z,99411.27
2023-05-12T13:28:19.414Z,99411.55
2023-05-12T13:30:24.274Z,99406.05
2023-05-12T13:32:28.999Z,99407.41
2023-05-12T13:34:33.684Z,99410.20
2023-05-12T13:36:38.409Z,99404.61
2023-05-12T13:38:43.178Z,99416.04
2023-05-12T13:40:47.883Z,99411.95
2023-05-12T13:42:52.549Z,99407.31
2023-05-12T13:44:57.198Z,99409.38
2023-05-12T13:47:02.145Z,99409.34
2023-05-12T13:49:06.869Z,99413.39
2023-05-12T13:51:11.602Z,99418.46
2023-05-12T13:53:16.320Z,99420.34
2023-05-12T13:55:21.853Z,99422.27
2023-05-12T13:57:26.918Z,99416.52
2023-05-12T13:59:31.890Z,99418.57
2023-05-12T14:01:36.651Z,99415.46
2023-05-12T14:03:41.412Z,99416.04
2023-05-12T14:05:46.205Z,99415.26
2023-05-12T14:07:51.171Z,99414.98
2023-05-12T14:09:55.832Z,99410.39
2023-05-12T14:12:03.017Z,99414.95
2023-05-12T14:14:07.611Z,99411.92
2023-05-12T14:16:12.322Z,99414.63
2023-05-12T14:18:16.887Z,99416.56
2023-05-12T14:20:21.693Z,99415.94
2023-05-12T14:22:26.922Z,99413.60
2023-05-12T14:24:31.597Z,99417.55
2023-05-12T14:26:36.399Z,99415.38
2023-05-12T14:28:41.088Z,99418.11
2023-05-12T14:30:45.942Z,99421.40
2023-05-12T14:32:50.825Z,99419.60
2023-05-12T14:34:55.494Z,99422.95
2023-05-12T14:37:00.188Z,99425.88
2023-05-12T14:39:05.045Z,99426.65
2023-05-12T14:41:09.753Z,99430.18
2023-05-12T14:43:14.481Z,99430.59
2023-05-12T14:45:19.563Z,99432.98
2023-05-12T14:47:24.681Z,99435.17
2023-05-12T14:49:29.392Z,99428.14
2023-05-12T14:51:34.052Z,99426.91
2023-05-12T14:53:38.814Z,99425.34
2023-05-12T14:55:43.436Z,99430.11
2023-05-12T14:57:48.112Z,99426.00
2023-05-12T14:59:52.853Z,99425.05
2023-05-12T15:01:57.533Z,99428.67
2023-05-12T15:04:02.335Z,99428.67
2023-05-12T15:06:07.895Z,99430.60
2023-05-12T15:08:12.994Z,99430.09
2023-05-12T15:10:17.729Z,99427.43
2023-05-12T15:12:22.453Z,99424.34
2023-05-12T15:14:27.315Z,99428.33
2023-05-12T15:16:32.112Z,99427.18
2023-05-12T15:18:36.827Z,99424.34
2023-05-12T15:20:41.519Z,99426.38
2023-05-12T15:22:47.131Z,99425.71
2023-05-12T15:24:51.838Z,99423.45
2023-05-12T15:26:56.514Z,99431.38
2023-05-12T15:29:01.177Z,99426.96
2023-05-12T15:31:05.995Z,99429.17
2023-05-12T15:33:10.749Z,99427.57
2023-05-12T15:35:15.522Z,99429.45
2023-05-12T15:37:20.191Z,99426.50
2023-05-12T15:39:24.768Z,99430.23
2023-05-12T15:41:29.486Z,99431.51
2023-05-12T15:43:34.438Z,99425.50
2023-05-12T15:45:39.292Z,99428.58
2023-05-12T15:47:44.016Z,99430.70
2023-05-12T15:49:49.733Z,99425.36
2023-05-12T15:51:54.523Z,99428.45
2023-05-12T15:53:59.181Z,99430.27
2023-05-12T15:56:04.857Z,99429.69
2023-05-12T15:58:09.519Z,99428.55
2023-05-12T16:00:15.915Z,99428.10
2023-05-12T16:02:21.326Z,99426.33
2023-05-12T16:04:26.151Z,99427.01
2023-05-12T16:06:30.809Z,99425.30
2023-05-12T16:08:35.397Z,99424.08
2023-05-12T16:10:40.113Z,99423.27
2023-05-12T16:12:46.910Z,99424.95
2023-05-12T16:14:53.287Z,99423.46
2023-05-12T16:16:58.091Z,99426.38
2023-05-12T16:19:02.838Z,99427.08
2023-05-12T16:21:07.651Z,99426.25
2023-05-12T16:23:12.366Z,99427.11
2023-05-12T16:25:17.126Z,99432.09
2023-05-12T16:27:21.858Z,99431.23
2023-05-12T16:29:26.867Z,99434.40
2023-05-12T16:31:31.715Z,99436.96
2023-05-12T16:33:36.542Z,99440.34
2023-05-12T16:35:41.309Z,99443.42
2023-05-12T16:37:46.015Z,99444.51
2023-05-12T16:39:51.513Z,99447.11
2023-05-12T16:41:56.206Z,99449.86
2023-05-12T16:44:00.950Z,99451.23
2023-05-12T16:46:05.911Z,99449.97
2023-05-12T16:48:10.600Z,99451.56
2023-05-12T16:50:15.609Z,99448.33
2023-05-12T16:52:20.313Z,99444.59
2023-05-12T16:54:25.051Z,99446.52
2023-05-12T16:56:29.858Z,99446.02
2023-05-12T16:58:34.466Z,99448.97
2023-05-12T17:00:39.167Z,99450.18
2023-05-12T17:02:43.991Z,99449.70
2023-05-12T17:04:48.754Z,99450.47
2023-05-12T17:06:53.513Z,99450.60
2023-05-12T17:08:58.239Z,99452.20
2023-05-12T17:11:02.939Z,99452.65
2023-05-12T17:13:07.772Z,99453.55
2023-05-12T17:15:13.391Z,99456.71
2023-05-12T17:17:18.180Z,99456.80
2023-05-12T17:19:22.930Z,99458.04
2023-05-12T17:21:27.893Z,99458.48
2023-05-12T17:23:32.689Z,99461.93
2023-05-12T17:25:37.454Z,99463.05
2023-05-12T17:27:42.130Z,99465.10
2023-05-12T17:29:46.860Z,99465.27
2023-05-12T17:31:51.686Z,99469.17
2023-05-12T17:33:56.524Z,99467.18
2023-05-12T17:36:12.325Z,99467.77
2023-05-12T17:38:17.957Z,99466.70
2023-05-12T17:40:23.173Z,99465.91
2023-05-12T17:42:27.879Z,99470.48
2023-05-12T17:44:32.553Z,99467.52
2023-05-12T17:46:37.361Z,99473.96
2023-05-12T17:48:42.098Z,99475.48
2023-05-12T17:50:47.887Z,99474.65
2023-05-12T17:52:53.124Z,99477.13
2023-05-12T17:54:57.792Z,99476.11
2023-05-12T17:57:02.488Z,99478.40
2023-05-12T17:59:07.170Z,99476.75
2023-05-12T18:01:11.869Z,99475.89
2023-05-12T18:03:16.838Z,99476.23
2023-05-12T18:05:22.227Z,99479.34
2023-05-12T18:07:27.225Z,99475.85
2023-05-12T18:09:32.095Z,99477.13
2023-05-12T18:11:36.920Z,99476.21
2023-05-12T18:13:41.551Z,99475.69
2023-05-12T18:15:48.228Z,99476.05
2023-05-12T18:17:53.258Z,99477.20
2023-05-12T18:19:58.046Z,99475.30
2023-05-12T18:22:02.724Z,99476.78
2023-05-12T18:24:08.284Z,99480.04
2023-05-12T18:26:16.136Z,99479.05
2023-05-12T18:28:20.756Z,99482.26
2023-05-12T18:30:25.432Z,99477.59
2023-05-12T18:32:30.267Z,99489.42
2023-05-12T18:34:35.723Z,99487.28
2023-05-12T18:36:40.634Z,99487.90
2023-05-12T18:38:45.496Z,99491.83
2023-05-12T18:40:50.202Z,99488.59
2023-05-12T18:42:54.857Z,99494.66
2023-05-12T18:44:59.658Z,99496.88
2023-05-12T18:47:04.811Z,99500.59
2023-05-12T18:49:12.484Z,99500.33
2023-05-12T18:51:17.164Z,99503.20
2023-05-12T18:53:22.108Z,99501.61
2023-05-12T18:55:26.941Z,99505.11
2023-05-12T18:57:31.712Z,99503.02
2023-05-12T18:59:36.728Z,99504.46
2023-05-12T19:01:41.389Z,99501.84
2023-05-12T19:03:46.288Z,99506.80
2023-05-12T19:05:51.648Z,99506.15
2023-05-12T19:07:56.463Z,99510.79
2023-05-12T19:10:01.404Z,99511.77
2023-05-12T19:12:07.928Z,99511.04
2023-05-12T19:14:12.636Z,99511.68
2023-05-12T19:16:17.437Z,99512.06
2023-05-12T19:18:22.164Z,99512.02
2023-05-12T19:20:27.217Z,99511.36
2023-05-12T19:22:31.954Z,99511.60
2023-05-12T19:24:36.671Z,99512.88
2023-05-12T19:26:41.321Z,99517.11
2023-05-12T19:28:45.959Z,99518.20
2023-05-12T19:30:50.661Z,99520.33
2023-05-12T19:32:55.336Z,99519.98
2023-05-12T19:35:03.220Z,99525.22
2023-05-12T19:37:08.205Z,99522.60
2023-05-12T19:39:13.122Z,99523.07
2023-05-12T19:41:17.895Z,99525.99
2023-05-12T19:43:22.493Z,99527.58
2023-05-12T19:45:27.191Z,99527.08
2023-05-12T19:47:31.980Z,99528.17
2023-05-12T19:49:37.064Z,99528.88
2023-05-12T19:51:41.897Z,99534.27
2023-05-12T19:53:46.683Z,99535.95
2023-05-12T19:55:51.350Z,99536.28
2023-05-12T19:57:56.098Z,99539.14
2023-05-12T20:00:01.294Z,99540.11
2023-05-12T20:02:17.457Z,99540.58
2023-05-12T20:04:25.936Z,99539.01
2023-05-12T20:06:30.688Z,99539.59
2023-05-12T20:08:35.419Z,99538.33
2023-05-12T20:10:40.154Z,99540.77
2023-05-12T20:12:44.909Z,99533.60
2023-05-12T20:14:49.581Z,99535.86
2023-05-12T20:16:54.909Z,99530.86
2023-05-12T20:19:01.257Z,99532.57
2023-05-12T20:21:07.565Z,99535.73
2023-05-12T20:23:12.180Z,99530.81
2023-05-12T20:25:16.982Z,99531.77
2023-05-12T20:27:21.722Z,99530.34
2023-05-12T20:29:26.418Z,99524.64
2023-05-12T20:31:31.222Z,99525.30
2023-05-12T20:33:35.804Z,99525.34
2023-05-12T20:35:40.457Z,99522.95
2023-05-12T20:37:45.296Z,99524.05
2023-05-12T20:39:49.928Z,99524.80
2023-05-12T20:41:54.643Z,99522.34
2023-05-12T20:43:59.339Z,99517.08
2023-05-12T20:46:05.920Z,99518.10
2023-05-12T20:48:10.711Z,99518.68
2023-05-12T20:50:15.411Z,99518.84
2023-05-12T20:52:20.013Z,99525.00
2023-05-12T20:54:24.737Z,99519.17
2023-05-12T20:56:29.681Z,99524.73
2023-05-12T20:58:34.321Z,99519.40
2023-05-12T21:00:38.953Z,99521.16
2023-05-12T21:02:43.711Z,99527.05
2023-05-12T21:04:48.382Z,99521.34
2023-05-12T21:06:53.732Z,99525.14
2023-05-12T21:08:58.584Z,99524.38
2023-05-12T21:11:03.247Z,99525.77
2023-05-12T21:13:08.018Z,99524.91
2023-05-12T21:15:13.027Z,99520.33
2023-05-12T21:17:18.060Z,99524.18
2023-05-12T21:19:22.660Z,99520.70
2023-05-12T21:21:27.338Z,99516.11
2023-05-12T21:23:32.041Z,99522.67
2023-05-12T21:25:36.766Z,99522.96
2023-05-12T21:27:41.649Z,99520.25
2023-05-12T21:29:46.357Z,99518.40
2023-05-12T21:31:50.974Z,99517.58
2023-05-12T21:33:55.689Z,99516.55
2023-05-12T21:36:00.331Z,99520.04
2023-05-12T21:38:05.904Z,99523.05
2023-05-12T21:40:12.146Z,99524.70
2023-05-12T21:42:16.713Z,99519.91
2023-05-12T21:44:21.312Z,99525.02
2023-05-12T21:46:26.099Z,99527.16
2023-05-12T21:48:30.895Z,99522.07
2023-05-12T21:50:35.511Z,99522.85
2023-05-12T21:52:40.622Z,99521.86
2023-05-12T21:54:45.290Z,99525.20
2023-05-12T21:56:49.984Z,99522.27
2023-05-12T21:58:54.636Z,99525.40
2023-05-12T22:01:02.046Z,99527.43
2023-05-12T22:03:06.824Z,99528.53
2023-05-12T22:05:11.699Z,99529.67
2023-05-12T22:07:16.348Z,99528.02
2023-05-12T22:09:20.978Z,99526.58
2023-05-12T22:11:25.817Z,99530.48
2023-05-12T22:13:30.551Z,99526.86
2023-05-12T22:15:35.469Z,99529.20
2023-05-12T22:17:40.752Z,99527.59
2023-05-12T22:19:45.317Z,99530.83
2023-05-12T22:21:51.512Z,99528.49
2023-05-12T22:23:57.546Z,99527.98
2023-05-12T22:26:02.489Z,99527.80
2023-05-12T22:28:07.423Z,99526.98
2023-05-12T22:30:13.576Z,99525.52
2023-05-12T22:32:18.307Z,99530.69
2023-05-12T22:34:22.949Z,99527.31
2023-05-12T22:36:27.554Z,99525.05
2023-05-12T22:38:32.223Z,99527.27
2023-05-12T22:40:36.838Z,99527.87
2023-05-12T22:42:41.420Z,99525.11
2023-05-12T22:44:46.062Z,99525.34
2023-05-12T22:46:50.798Z,99528.94
2023-05-12T22:48:55.414Z,99523.65
2023-05-12T22:50:59.989Z,99526.85
2023-05-12T22:53:04.634Z,99523.39
2023-05-12T22:55:10.406Z,99520.23
2023-05-12T22:57:15.139Z,99522.12
2023-05-12T22:59:19.781Z,99523.31
2023-05-12T23:01:24.697Z,99521.55
2023-05-12T23:03:30.003Z,99523.16
2023-05-12T23:05:34.838Z,99523.66
2023-05-12T23:07:39.504Z,99523.11
2023-05-12T23:09:44.152Z,99519.72
2023-05-12T23:11:49.150Z,99522.48
2023-05-12T23:13:54.235Z,99520.07
2023-05-12T23:15:58.934Z,99523.63
2023-05-12T23:18:03.730Z,99522.75
2023-05-12T23:20:12.527Z,99514.27
2023-05-12T23:22:17.187Z,99520.59
2023-05-12T23:24:22.164Z,99516.45
2023-05-12T23:26:26.890Z,99513.23
2023-05-12T23:28:31.524Z,99513.73
2023-05-12T23:30:36.506Z,99514.71
2023-05-12T23:32:41.439Z,99516.06
2023-05-12T23:34:46.336Z,99516.27
2023-05-12T23:36:51.006Z,99516.71
2023-05-12T23:38:58.596Z,99517.53
2023-05-12T23:41:03.187Z,99521.48
2023-05-12T23:43:08.136Z,99516.39
2023-05-12T23:45:13.138Z,99509.30
2023-05-12T23:47:17.816Z,99510.77
2023-05-12T23:49:22.412Z,99510.91
2023-05-12T23:51:26.995Z,99507.46
2023-05-12T23:53:31.695Z,99507.59
2023-05-12T23:55:36.436Z,99501.11
2023-05-12T23:57:41.095Z,99506.76
2023-05-12T23:59:45.744Z,99501.12
